createdAt,value
2018-12-03T00:01:30.881Z,97146.42
2018-12-03T00:04:31.040Z,97149.38
2018-12-03T00:06:59.689Z,97143.53
2018-12-03T00:09:28.366Z,97139.75
2018-12-03T00:11:57.605Z,97141.59
2018-12-03T00:14:26.117Z,97139.80
2018-12-03T00:16:55.043Z,97143.11
2018-12-03T00:19:24.128Z,97136.91
2018-12-03T00:21:52.799Z,97142.95
2018-12-03T00:24:21.436Z,97138.45
2018-12-03T00:26:50.129Z,97121.14
2018-12-03T00:29:18.690Z,97130.52
2018-12-03T00:31:47.252Z,97127.05
2018-12-03T00:34:16.010Z,97116.77
2018-12-03T00:36:44.607Z,97123.12
2018-12-03T00:39:14.584Z,97117.39
2018-12-03T00:41:43.211Z,97116.56
2018-12-03T00:44:11.796Z,97119.61
2018-12-03T00:46:40.380Z,97124.01
2018-12-03T00:49:08.922Z,97124.64
2018-12-03T00:51:37.450Z,97126.00
2018-12-03T00:54:06.544Z,97114.31
2018-12-03T00:56:35.143Z,97117.41
2018-12-03T00:59:03.747Z,97114.52
2018-12-03T01:01:36.058Z,97109.22
2018-12-03T01:04:05.363Z,97110.95
2018-12-03T01:06:33.983Z,97109.20
2018-12-03T01:09:02.623Z,97106.80
2018-12-03T01:11:31.178Z,97104.33
2018-12-03T01:14:00.683Z,97111.15
2018-12-03T01:16:29.380Z,97112.05
2018-12-03T01:18:57.923Z,97106.38
2018-12-03T01:21:26.563Z,97112.25
2018-12-03T01:23:55.392Z,97107.00
2018-12-03T01:26:23.984Z,97106.17
2018-12-03T01:28:52.521Z,97104.86
2018-12-03T01:31:21.074Z,97098.45
2018-12-03T01:33:49.582Z,97098.13
2018-12-03T01:36:18.187Z,97106.70
2018-12-03T01:38:46.790Z,97099.84
2018-12-03T01:41:15.382Z,97094.09
2018-12-03T01:43:44.366Z,97092.31
2018-12-03T01:46:13.238Z,97092.19
2018-12-03T01:48:41.755Z,97096.03
2018-12-03T01:51:10.387Z,97118.34
2018-12-03T01:53:39.023Z,97115.52
2018-12-03T01:56:08.762Z,97112.78
2018-12-03T01:58:37.338Z,97118.55
2018-12-03T02:01:06.055Z,97116.77
2018-12-03T02:03:34.650Z,97112.87
2018-12-03T02:06:03.243Z,97114.09
2018-12-03T02:08:31.890Z,97119.17
2018-12-03T02:11:00.895Z,97125.73
2018-12-03T02:13:29.421Z,97113.47
2018-12-03T02:15:58.882Z,97100.30
2018-12-03T02:18:27.450Z,97100.81
2018-12-03T02:20:56.010Z,97103.38
2018-12-03T02:23:25.115Z,97099.31
2018-12-03T02:25:53.746Z,97088.23
2018-12-03T02:28:23.268Z,97078.41
2018-12-03T02:30:52.424Z,97087.81
2018-12-03T02:33:21.028Z,97091.48
2018-12-03T02:35:49.584Z,97099.09
2018-12-03T02:38:18.091Z,97092.95
2018-12-03T02:40:46.619Z,97079.00
2018-12-03T02:43:15.191Z,97071.01
2018-12-03T02:45:44.343Z,97066.70
2018-12-03T02:48:12.874Z,97073.38
2018-12-03T02:50:41.492Z,97075.91
2018-12-03T02:53:10.022Z,97077.83
2018-12-03T02:55:38.547Z,97081.92
2018-12-03T02:58:07.123Z,97079.19
2018-12-03T03:00:39.154Z,97083.14
2018-12-03T03:03:08.110Z,97079.52
2018-12-03T03:05:36.651Z,97093.27
2018-12-03T03:08:05.291Z,97104.56
2018-12-03T03:10:34.816Z,97094.73
2018-12-03T03:13:03.462Z,97087.38
2018-12-03T03:15:32.073Z,97070.45
2018-12-03T03:18:00.761Z,97068.60
2018-12-03T03:20:29.511Z,97068.69
2018-12-03T03:22:58.131Z,97067.13
2018-12-03T03:25:26.743Z,97076.11
2018-12-03T03:27:55.327Z,97095.30
2018-12-03T03:30:23.910Z,97095.35
2018-12-03T03:32:53.192Z,97089.52
2018-12-03T03:35:21.811Z,97096.55
2018-12-03T03:37:50.750Z,97095.56
2018-12-03T03:40:19.337Z,97089.69
2018-12-03T03:42:48.794Z,97092.67
2018-12-03T03:45:19.165Z,97088.73
2018-12-03T03:47:47.752Z,97090.95
2018-12-03T03:50:16.322Z,97090.74
2018-12-03T03:52:44.992Z,97086.48
2018-12-03T03:55:13.590Z,97085.28
2018-12-03T03:57:43.080Z,97094.67
2018-12-03T04:00:15.837Z,97092.67
2018-12-03T04:02:44.741Z,97097.86
2018-12-03T04:05:14.439Z,97100.85
2018-12-03T04:07:44.067Z,97098.69
2018-12-03T04:10:13.750Z,97095.13
2018-12-03T04:12:43.230Z,97105.31
2018-12-03T04:15:13.049Z,97107.97
2018-12-03T04:17:41.834Z,97110.70
2018-12-03T04:20:14.296Z,97110.16
2018-12-03T04:22:43.396Z,97107.94
2018-12-03T04:25:12.578Z,97096.43
2018-12-03T04:27:41.888Z,97088.47
2018-12-03T04:30:15.902Z,97090.50
2018-12-03T04:32:44.885Z,97083.52
2018-12-03T04:35:14.132Z,97078.55
2018-12-03T04:37:43.422Z,97089.11
2018-12-03T04:40:13.223Z,97080.55
2018-12-03T04:42:41.835Z,97090.77
2018-12-03T04:45:12.653Z,97095.35
2018-12-03T04:47:41.368Z,97084.48
2018-12-03T04:50:12.286Z,97084.60
2018-12-03T04:52:40.904Z,97097.47
2018-12-03T04:55:09.951Z,97096.55
2018-12-03T04:57:38.676Z,97099.30
2018-12-03T05:00:16.098Z,97088.24
2018-12-03T05:02:45.480Z,97087.25
2018-12-03T05:05:14.024Z,97093.08
2018-12-03T05:07:43.059Z,97093.00
2018-12-03T05:10:16.751Z,97090.23
2018-12-03T05:12:46.582Z,97088.45
2018-12-03T05:15:15.853Z,97095.94
2018-12-03T05:17:44.891Z,97105.66
2018-12-03T05:20:17.826Z,97110.26
2018-12-03T05:22:46.427Z,97108.19
2018-12-03T05:25:19.261Z,97108.44
2018-12-03T05:27:43.743Z,97108.73
2018-12-03T05:30:15.842Z,97099.13
2018-12-03T05:32:45.044Z,97100.98
2018-12-03T05:35:17.176Z,97103.39
2018-12-03T05:37:45.771Z,97098.63
2018-12-03T05:40:16.045Z,97108.85
2018-12-03T05:42:44.976Z,97106.82
2018-12-03T05:45:13.871Z,97101.06
2018-12-03T05:47:42.383Z,97100.24
2018-12-03T05:50:13.271Z,97108.73
2018-12-03T05:52:42.061Z,97109.55
2018-12-03T05:55:12.078Z,97097.05
2018-12-03T05:57:41.035Z,97098.63
2018-12-03T06:00:19.102Z,97105.87
2018-12-03T06:02:47.996Z,97114.23
2018-12-03T06:05:17.167Z,97108.77
2018-12-03T06:07:45.880Z,97118.20
2018-12-03T06:10:19.585Z,97116.38
2018-12-03T06:12:48.181Z,97117.75
2018-12-03T06:15:19.133Z,97117.54
2018-12-03T06:17:49.585Z,97116.97
2018-12-03T06:20:19.452Z,97118.87
2018-12-03T06:22:49.218Z,97127.90
2018-12-03T06:25:20.482Z,97128.72
2018-12-03T06:27:49.411Z,97126.73
2018-12-03T06:30:20.002Z,97131.82
2018-12-03T06:32:49.415Z,97131.03
2018-12-03T06:35:19.158Z,97129.55
2018-12-03T06:37:48.397Z,97134.73
2018-12-03T06:40:21.203Z,97134.47
2018-12-03T06:42:50.203Z,97138.08
2018-12-03T06:45:20.422Z,97138.67
2018-12-03T06:47:57.687Z,97149.61
2018-12-03T06:50:26.691Z,97157.60
2018-12-03T06:52:56.103Z,97167.52
2018-12-03T06:55:25.357Z,97179.55
2018-12-03T06:57:53.984Z,97182.40
2018-12-03T07:00:23.705Z,97178.88
2018-12-03T07:02:52.962Z,97177.66
2018-12-03T07:05:21.666Z,97168.38
2018-12-03T07:07:52.023Z,97175.67
2018-12-03T07:10:21.882Z,97170.27
2018-12-03T07:12:53.262Z,97162.70
2018-12-03T07:15:22.916Z,97162.64
2018-12-03T07:17:53.858Z,97146.33
2018-12-03T07:20:22.649Z,97137.23
2018-12-03T07:22:51.933Z,97131.69
2018-12-03T07:25:20.519Z,97149.02
2018-12-03T07:27:49.287Z,97177.14
2018-12-03T07:30:20.985Z,97194.53
2018-12-03T07:32:50.439Z,97208.97
2018-12-03T07:35:20.036Z,97211.23
2018-12-03T07:37:49.459Z,97208.29
2018-12-03T07:40:18.279Z,97220.56
2018-12-03T07:42:46.838Z,97217.84
2018-12-03T07:45:19.883Z,97228.13
2018-12-03T07:47:48.793Z,97228.13
2018-12-03T07:50:18.449Z,97227.97
2018-12-03T07:52:47.099Z,97235.01
2018-12-03T07:55:18.016Z,97241.37
2018-12-03T07:57:52.072Z,97232.97
2018-12-03T08:00:25.755Z,97230.74
2018-12-03T08:02:54.484Z,97229.33
2018-12-03T08:05:23.865Z,97200.67
2018-12-03T08:07:52.605Z,97208.05
2018-12-03T08:10:21.211Z,97212.48
2018-12-03T08:12:50.541Z,97208.12
2018-12-03T08:15:20.641Z,97205.75
2018-12-03T08:17:52.991Z,97195.31
2018-12-03T08:20:23.546Z,97197.09
2018-12-03T08:22:55.542Z,97214.66
2018-12-03T08:25:25.718Z,97231.53
2018-12-03T08:27:54.993Z,97225.76
2018-12-03T08:30:23.635Z,97230.48
2018-12-03T08:32:52.324Z,97230.67
2018-12-03T08:35:22.151Z,97233.84
2018-12-03T08:37:50.826Z,97238.17
2018-12-03T08:40:20.557Z,97243.14
2018-12-03T08:42:52.847Z,97244.55
2018-12-03T08:45:23.489Z,97240.88
2018-12-03T08:47:52.643Z,97233.74
2018-12-03T08:50:24.595Z,97243.36
2018-12-03T08:52:53.650Z,97255.35
2018-12-03T08:55:22.950Z,97250.88
2018-12-03T08:57:51.863Z,97256.23
2018-12-03T09:00:23.075Z,97265.73
2018-12-03T09:03:03.872Z,97268.89
2018-12-03T09:05:35.836Z,97277.23
2018-12-03T09:08:04.619Z,97266.71
2018-12-03T09:10:33.387Z,97254.73
2018-12-03T09:13:21.344Z,97247.75
2018-12-03T09:15:56.803Z,97267.58
2018-12-03T09:18:29.983Z,97261.17
2018-12-03T09:20:59.564Z,97253.84
2018-12-03T09:23:28.234Z,97275.02
2018-12-03T09:25:56.922Z,97264.84
2018-12-03T09:28:26.062Z,97268.25
2018-12-03T09:30:54.798Z,97280.05
2018-12-03T09:33:23.511Z,97267.97
2018-12-03T09:35:52.635Z,97275.22
2018-12-03T09:38:21.429Z,97272.77
2018-12-03T09:40:50.258Z,97271.49
2018-12-03T09:43:18.999Z,97267.83
2018-12-03T09:45:47.728Z,97262.09
2018-12-03T09:48:16.474Z,97258.63
2018-12-03T09:50:45.023Z,97257.97
2018-12-03T09:53:14.095Z,97247.83
2018-12-03T09:55:42.783Z,97248.86
2018-12-03T09:58:15.486Z,97250.63
2018-12-03T10:00:44.446Z,97252.13
2018-12-03T10:03:22.335Z,97247.83
2018-12-03T10:05:54.755Z,97238.80
2018-12-03T10:08:26.116Z,97235.77
2018-12-03T10:11:03.028Z,97229.64
2018-12-03T10:13:32.392Z,97224.47
2018-12-03T10:16:01.166Z,97226.05
2018-12-03T10:18:29.852Z,97218.19
2018-12-03T10:20:59.990Z,97215.34
2018-12-03T10:23:29.003Z,97204.44
2018-12-03T10:25:59.025Z,97201.85
2018-12-03T10:28:28.299Z,97207.10
2018-12-03T10:30:57.927Z,97205.05
2018-12-03T10:33:32.218Z,97198.87
2018-12-03T10:36:04.433Z,97190.91
2018-12-03T10:38:35.649Z,97183.86
2018-12-03T10:41:20.632Z,97184.64
2018-12-03T10:43:50.259Z,97187.56
2018-12-03T10:46:18.910Z,97178.91
2018-12-03T10:48:47.535Z,97177.98
2018-12-03T10:51:18.285Z,97174.13
2018-12-03T10:53:47.562Z,97164.41
2018-12-03T10:56:17.327Z,97171.72
2018-12-03T10:58:46.801Z,97167.84
2018-12-03T11:01:23.972Z,97167.41
2018-12-03T11:03:57.812Z,97159.15
2018-12-03T11:06:26.785Z,97158.63
2018-12-03T11:08:55.495Z,97146.66
2018-12-03T11:11:24.683Z,97153.61
2018-12-03T11:13:54.502Z,97150.99
2018-12-03T11:16:28.411Z,97160.42
2018-12-03T11:18:57.370Z,97155.12
2018-12-03T11:21:26.672Z,97153.65
2018-12-03T11:23:56.016Z,97150.94
2018-12-03T11:26:30.552Z,97157.02
2018-12-03T11:28:59.203Z,97150.59
2018-12-03T11:31:31.792Z,97157.25
2018-12-03T11:34:00.554Z,97153.05
2018-12-03T11:36:46.438Z,97145.55
2018-12-03T11:39:24.227Z,97140.63
2018-12-03T11:42:02.251Z,97140.86
2018-12-03T11:44:30.872Z,97136.17
2018-12-03T11:47:00.831Z,97130.77
2018-12-03T11:49:29.798Z,97119.59
2018-12-03T11:51:58.603Z,97129.96
2018-12-03T11:54:27.202Z,97134.30
2018-12-03T11:56:55.819Z,97130.97
2018-12-03T11:59:24.613Z,97136.17
2018-12-03T12:01:54.036Z,97136.64
2018-12-03T12:04:24.102Z,97135.66
2018-12-03T12:06:52.697Z,97142.20
2018-12-03T12:09:21.347Z,97147.24
2018-12-03T12:11:50.072Z,97140.00
2018-12-03T12:14:25.098Z,97132.67
2018-12-03T12:16:53.703Z,97134.41
2018-12-03T12:19:22.363Z,97128.16
2018-12-03T12:21:51.055Z,97123.45
2018-12-03T12:24:20.261Z,97120.30
2018-12-03T12:26:50.524Z,97118.35
2018-12-03T12:29:19.327Z,97112.18
2018-12-03T12:31:47.936Z,97115.94
2018-12-03T12:34:16.495Z,97103.42
2018-12-03T12:36:45.066Z,97106.25
2018-12-03T12:39:13.819Z,97100.45
2018-12-03T12:41:43.059Z,97102.38
2018-12-03T12:44:12.963Z,97088.50
2018-12-03T12:46:45.310Z,97089.05
2018-12-03T12:49:14.376Z,97081.66
2018-12-03T12:51:43.687Z,97080.44
2018-12-03T12:54:13.161Z,97080.95
2018-12-03T12:56:41.859Z,97077.47
2018-12-03T12:59:10.870Z,97079.28
2018-12-03T13:01:39.492Z,97079.28
2018-12-03T13:04:09.157Z,97074.52
2018-12-03T13:06:37.879Z,97076.17
2018-12-03T13:09:10.175Z,97078.03
2018-12-03T13:11:39.472Z,97075.03
2018-12-03T13:14:09.713Z,97086.61
2018-12-03T13:16:38.379Z,97082.25
2018-12-03T13:19:08.434Z,97081.20
2018-12-03T13:21:37.319Z,97087.24
2018-12-03T13:24:07.596Z,97099.68
2018-12-03T13:26:38.439Z,97106.92
2018-12-03T13:29:07.470Z,97111.36
2018-12-03T13:32:23.699Z,97114.23
2018-12-03T13:34:52.218Z,97112.49
2018-12-03T13:37:21.106Z,97115.55
2018-12-03T13:39:50.320Z,97111.33
2018-12-03T13:42:19.210Z,97111.98
2018-12-03T13:44:47.826Z,97123.41
2018-12-03T13:47:16.521Z,97123.27
2018-12-03T13:49:45.214Z,97126.01
2018-12-03T13:52:14.389Z,97132.20
2018-12-03T13:54:42.985Z,97142.19
2018-12-03T13:57:11.751Z,97141.98
2018-12-03T13:59:40.292Z,97138.86
2018-12-03T14:02:09.876Z,97131.56
2018-12-03T14:04:39.208Z,97119.97
2018-12-03T14:07:42.724Z,97121.29
2018-12-03T14:10:20.495Z,97119.71
2018-12-03T14:13:56.272Z,97120.97
2018-12-03T14:16:51.533Z,97120.92
2018-12-03T14:19:23.895Z,97118.58
2018-12-03T14:22:14.846Z,97120.05
2018-12-03T14:24:43.471Z,97113.73
2018-12-03T14:27:12.054Z,97119.22
2018-12-03T14:29:41.914Z,97124.98
2018-12-03T14:32:11.520Z,97129.28
2018-12-03T14:34:40.131Z,97113.45
2018-12-03T14:37:08.846Z,97111.30
2018-12-03T14:39:37.473Z,97109.77
2018-12-03T14:42:07.168Z,97109.35
2018-12-03T14:44:35.703Z,97108.54
2018-12-03T14:47:04.255Z,97111.21
2018-12-03T14:49:32.931Z,97117.74
2018-12-03T14:52:02.510Z,97114.67
2018-12-03T14:54:31.100Z,97117.83
2018-12-03T14:56:59.723Z,97106.73
2018-12-03T14:59:28.312Z,97118.12
2018-12-03T15:01:57.204Z,97133.98
2018-12-03T15:04:25.852Z,97137.67
2018-12-03T15:06:55.036Z,97162.64
2018-12-03T15:09:24.234Z,97175.22
2018-12-03T15:11:54.244Z,97160.74
2018-12-03T15:14:23.196Z,97165.04
2018-12-03T15:16:51.808Z,97151.63
2018-12-03T15:19:20.499Z,97158.34
2018-12-03T15:21:49.697Z,97164.53
2018-12-03T15:24:18.330Z,97157.59
2018-12-03T15:26:47.062Z,97166.53
2018-12-03T15:29:15.547Z,97160.65
2018-12-03T15:31:44.403Z,97169.34
2018-12-03T15:34:13.003Z,97157.08
2018-12-03T15:36:42.519Z,97160.02
2018-12-03T15:39:12.025Z,97142.23
2018-12-03T15:41:40.656Z,97143.72
2018-12-03T15:44:09.255Z,97129.97
2018-12-03T15:46:39.060Z,97127.52
2018-12-03T15:49:09.538Z,97117.43
2018-12-03T15:51:39.403Z,97112.72
2018-12-03T15:54:08.575Z,97106.87
2018-12-03T15:56:37.155Z,97112.92
2018-12-03T15:59:05.787Z,97117.44
2018-12-03T16:01:34.438Z,97119.73
2018-12-03T16:04:02.976Z,97115.44
2018-12-03T16:06:32.013Z,97106.87
2018-12-03T16:09:01.299Z,97109.98
2018-12-03T16:11:29.910Z,97101.30
2018-12-03T16:13:58.528Z,97090.09
2018-12-03T16:16:27.148Z,97090.52
2018-12-03T16:18:55.675Z,97083.89
2018-12-03T16:21:25.266Z,97087.03
2018-12-03T16:23:54.284Z,97097.20
2018-12-03T16:26:22.984Z,97093.39
2018-12-03T16:28:53.411Z,97097.94
2018-12-03T16:31:22.255Z,97108.10
2018-12-03T16:33:51.244Z,97122.00
2018-12-03T16:36:20.585Z,97122.98
2018-12-03T16:38:50.380Z,97118.81
2018-12-03T16:41:19.571Z,97104.86
2018-12-03T16:43:48.620Z,97097.94
2018-12-03T16:46:17.951Z,97104.30
2018-12-03T16:48:47.530Z,97079.66
2018-12-03T16:51:16.333Z,97078.14
2018-12-03T16:53:45.505Z,97085.25
2018-12-03T16:56:14.762Z,97088.38
2018-12-03T16:58:43.975Z,97094.19
2018-12-03T17:01:13.248Z,97097.13
2018-12-03T17:03:42.714Z,97087.03
2018-12-03T17:06:12.638Z,97072.02
2018-12-03T17:08:41.542Z,97067.88
2018-12-03T17:11:10.366Z,97066.75
2018-12-03T17:13:39.289Z,97060.33
2018-12-03T17:16:08.298Z,97063.16
2018-12-03T17:18:37.344Z,97062.51
2018-12-03T17:21:12.223Z,97054.04
2018-12-03T17:24:03.124Z,97055.97
2018-12-03T17:26:32.044Z,97049.95
2018-12-03T17:29:01.687Z,97051.01
2018-12-03T17:31:30.409Z,97039.69
2018-12-03T17:34:00.275Z,97027.94
2018-12-03T17:36:28.827Z,97028.67
2018-12-03T17:38:58.386Z,97031.34
2018-12-03T17:41:26.973Z,97036.62
2018-12-03T17:43:56.063Z,97045.13
2018-12-03T17:46:25.224Z,97048.16
2018-12-03T17:48:56.300Z,97042.28
2018-12-03T17:51:26.343Z,97034.23
2018-12-03T18:01:00.182Z,97006.77
2018-12-03T18:03:31.204Z,96989.16
2018-12-03T18:06:03.683Z,96978.69
2018-12-03T18:08:32.700Z,96980.94
2018-12-03T18:11:01.641Z,96971.19
2018-12-03T18:13:30.623Z,96975.25
2018-12-03T18:15:59.495Z,96974.17
2018-12-03T18:18:28.805Z,96962.34
2018-12-03T18:20:57.448Z,96963.59
2018-12-03T18:23:27.527Z,96960.14
2018-12-03T18:25:56.717Z,96945.57
2018-12-03T18:28:27.038Z,96950.60
2018-12-03T18:30:56.055Z,96936.92
2018-12-03T18:33:25.565Z,96929.59
2018-12-03T18:35:55.310Z,96939.78
2018-12-03T18:38:25.099Z,96955.55
2018-12-03T18:40:54.761Z,96961.52
2018-12-03T18:43:23.652Z,96956.70
2018-12-03T18:45:52.916Z,96978.79
2018-12-03T18:48:23.334Z,96986.97
2018-12-03T18:50:54.330Z,96971.30
2018-12-03T18:53:26.251Z,96976.56
2018-12-03T18:55:56.670Z,96971.32
2018-12-03T18:58:30.744Z,96960.03
2018-12-03T19:01:00.369Z,96958.14
2018-12-03T19:03:29.017Z,96943.27
2018-12-03T19:05:58.487Z,96967.05
2018-12-03T19:08:29.554Z,96946.62
2018-12-03T19:10:58.549Z,96937.71
2018-12-03T19:13:29.316Z,96934.20
2018-12-03T19:15:58.247Z,96924.51
2018-12-03T19:18:28.874Z,96934.48
2018-12-03T19:20:58.526Z,96934.97
2018-12-03T19:23:27.472Z,96927.23
2018-12-03T19:25:57.632Z,96929.17
2018-12-03T19:28:27.560Z,96923.62
2018-12-03T19:30:56.180Z,96916.97
2018-12-03T19:33:24.867Z,96919.27
2018-12-03T19:35:53.535Z,96916.60
2018-12-03T19:38:22.233Z,96920.63
2018-12-03T19:40:51.595Z,96930.33
2018-12-03T19:43:20.135Z,96936.34
2018-12-03T19:45:49.983Z,96931.53
2018-12-03T19:48:18.661Z,96944.00
2018-12-03T19:50:47.494Z,96952.59
2018-12-03T19:53:16.474Z,96955.73
2018-12-03T19:55:48.267Z,96962.69
2018-12-03T19:58:20.213Z,96974.67
2018-12-03T20:00:49.832Z,96975.52
2018-12-03T20:03:18.662Z,96965.34
2018-12-03T20:05:47.595Z,96968.41
2018-12-03T20:08:16.422Z,96972.24
2018-12-03T20:10:45.095Z,96971.30
2018-12-03T20:13:15.035Z,96968.20
2018-12-03T20:15:43.889Z,96980.48
2018-12-03T20:18:12.492Z,96977.97
2018-12-03T20:20:45.677Z,96980.94
2018-12-03T20:23:19.787Z,97001.84
2018-12-03T20:26:57.563Z,97008.95
2018-12-03T20:29:38.024Z,97010.27
2018-12-03T20:33:14.187Z,97013.80
2018-12-03T20:35:53.643Z,97011.63
2018-12-03T20:38:44.135Z,97022.38
2018-12-03T20:41:31.993Z,97032.88
2018-12-03T20:44:08.070Z,97027.98
2018-12-03T20:46:52.477Z,97040.03
2018-12-03T20:50:43.436Z,97034.97
2018-12-03T20:53:10.142Z,97040.39
2018-12-03T20:55:41.768Z,97039.94
2018-12-03T20:58:10.680Z,97040.42
2018-12-03T21:00:40.897Z,97037.58
2018-12-03T21:03:10.131Z,97041.78
2018-12-03T21:05:39.198Z,97041.45
2018-12-03T21:08:08.154Z,97040.16
2018-12-03T21:10:37.323Z,97045.23
2018-12-03T21:13:05.951Z,97045.12
2018-12-03T21:15:34.491Z,97051.50
2018-12-03T21:18:03.899Z,97064.16
2018-12-03T21:20:37.737Z,97066.81
2018-12-03T21:23:06.466Z,97066.81
2018-12-03T21:25:35.031Z,97069.84
2018-12-03T21:28:03.805Z,97068.39
2018-12-03T21:30:32.918Z,97078.56
2018-12-03T21:33:01.491Z,97078.29
2018-12-03T21:35:30.143Z,97072.48
2018-12-03T21:37:59.448Z,97082.31
2018-12-03T21:40:28.007Z,97076.64
2018-12-03T21:42:56.572Z,97078.64
2018-12-03T21:45:25.192Z,97094.13
2018-12-03T21:47:53.971Z,97106.47
2018-12-03T21:50:24.614Z,97122.53
2018-12-03T21:52:53.275Z,97138.43
2018-12-03T21:55:23.056Z,97140.80
2018-12-03T21:57:54.427Z,97150.12
2018-12-03T22:00:23.103Z,97147.24
2018-12-03T22:02:53.220Z,97162.45
2018-12-03T22:05:22.280Z,97170.33
2018-12-03T22:07:50.851Z,97193.38
2018-12-03T22:10:19.774Z,97211.63
2018-12-03T22:12:49.561Z,97229.84
2018-12-03T22:15:18.151Z,97259.66
2018-12-03T22:17:46.802Z,97253.06
2018-12-03T22:20:15.878Z,97274.02
2018-12-03T22:22:46.891Z,97283.73
2018-12-03T22:25:15.374Z,97282.91
2018-12-03T22:27:43.883Z,97279.75
2018-12-03T22:30:13.243Z,97275.45
2018-12-03T22:32:41.771Z,97268.58
2018-12-03T22:35:10.355Z,97259.68
2018-12-03T22:37:39.967Z,97261.61
2018-12-03T22:40:08.493Z,97260.53
2018-12-03T22:42:37.061Z,97266.56
2018-12-03T22:45:06.602Z,97272.45
2018-12-03T22:47:36.649Z,97280.62
2018-12-03T22:50:05.605Z,97288.63
2018-12-03T22:52:34.218Z,97296.80
2018-12-03T22:55:02.762Z,97285.91
2018-12-03T22:57:32.015Z,97293.64
2018-12-03T23:00:00.575Z,97281.91
2018-12-03T23:02:29.068Z,97288.91
2018-12-03T23:04:57.629Z,97286.98
2018-12-03T23:07:26.725Z,97284.77
2018-12-03T23:09:55.228Z,97287.70
2018-12-03T23:12:23.787Z,97295.66
2018-12-03T23:14:52.407Z,97301.81
2018-12-03T23:17:21.871Z,97307.05
2018-12-03T23:19:50.379Z,97318.14
2018-12-03T23:22:18.848Z,97321.83
2018-12-03T23:24:47.374Z,97330.35
2018-12-03T23:27:15.981Z,97326.25
2018-12-03T23:29:44.571Z,97337.38
2018-12-03T23:32:13.702Z,97334.34
2018-12-03T23:34:42.254Z,97322.30
2018-12-03T23:37:10.760Z,97328.55
2018-12-03T23:39:40.476Z,97328.20
2018-12-03T23:42:09.634Z,97329.20
2018-12-03T23:44:38.212Z,97328.27
2018-12-03T23:47:06.682Z,97331.63
2018-12-03T23:49:35.163Z,97332.42
2018-12-03T23:52:03.779Z,97338.31
2018-12-03T23:54:32.397Z,97340.81
2018-12-03T23:57:01.029Z,97340.73
2018-12-03T23:59:29.569Z,97345.55
